Lavallette, NJ

9:30 PM EDT on June 30, 2015 (GMT -0400)
Bell Crest | | Change Station
CLOSE
Current Station
Personal Weather Station
Location: Toms River, NJ
Elevation: 26 ft
Nearby Weather Stations

Elev 26 ft 39.98 °N, 74.13 °W | Updated 7 minutes ago

Partly Cloudy
Partly Cloudy
73.5 °F
Feels Like 71 °F
N
2.0
Wind Variable Wind from WSW
Gusts 3.0 mph

Today
High -- | Low -- °F
--% Chance of Precip.
Yesterday
High -- | Low -- °F
Precip. -- in
5:30 AM 8:29 PM
Waxing Gibbous, 99% visible
Pressure 29.88 in
Visibility 10.0 miles
Clouds Few 1600 ft
Heat Index 71 °F
Dew Point 71 °F
Humidity 92%
Rainfall in
Snow Depth Not available.
UV 0 out of 12
Pollen 4.80 out of 12
Air Quality Not available.
Flu Activity Sporadic
METAR KMJX 010115Z AUTO 17008KT 10SM FEW016 24/21 A2988 RMK AO1

More Conditions Fewer Conditions

Pressure 29.88 in
Visibility 10.0 miles
Clouds Few 1600 ft
Heat Index 71 °F
Dew Point 71 °F
Humidity 92%
Rainfall in
Snow Depth Not available.
UV 0 out of 12
Pollen 4.80 out of 12
Air Quality Not available.
Flu Activity Sporadic
METAR KMJX 010115Z AUTO 17008KT 10SM FEW016 24/21 A2988 RMK AO1

More Conditions Fewer Conditions

10-Day Weather Forecast

×

Almanac

Astronomy

Jun. 30, 2015 Rise Set
Actual Time
Civil Twilight
Nautical Twilight
Astronomical Twilight
Moon
Length of Visible Light
Length of Day
Tomorrow will be .
, % of the Moon is Illuminated

Today's Extremes

State Highs State Lows

Community

WunderPhotos

Upload Photos

1,834,085 photos uploaded!

WunderBlogs® & News

Nearby

Air Quality

  Air Quality AQ Index Pollutant
Not available.

Snow Depth

Station Depth Elevation

Earthquake Activity

City Distance Mag. Time & Date
Minimum magnitude displayed is 2.5.

Coastal Water Temperatures

Place Temperature

Stations

Nearby Weather Stations

Station Location Temp. Windchill Dew Point Humidity Wind Precip. Elev Updated Type